sensor_id;sensor_type;location;lat;lon;timestamp;P1;durP1;ratioP1;P2;durP2;ratioP2
76854;SDS011;66343;44.588;33.450;2022-12-29T00:02:01;9.52;;;2.58;;
76854;SDS011;66343;44.588;33.450;2022-12-29T00:04:44;8.52;;;2.22;;
76854;SDS011;66343;44.588;33.450;2022-12-29T00:07:34;7.32;;;2.38;;
76854;SDS011;66343;44.588;33.450;2022-12-29T00:10:31;7.82;;;1.90;;
76854;SDS011;66343;44.588;33.450;2022-12-29T00:13:13;6.72;;;2.20;;
76854;SDS011;66343;44.588;33.450;2022-12-29T00:16:14;7.63;;;2.20;;
76854;SDS011;66343;44.588;33.450;2022-12-29T00:19:06;9.15;;;2.50;;
76854;SDS011;66343;44.588;33.450;2022-12-29T00:22:11;7.50;;;2.70;;
76854;SDS011;66343;44.588;33.450;2022-12-29T00:25:14;7.25;;;2.40;;
76854;SDS011;66343;44.588;33.450;2022-12-29T00:28:18;6.95;;;2.60;;
76854;SDS011;66343;44.588;33.450;2022-12-29T00:31:21;7.68;;;2.83;;
76854;SDS011;66343;44.588;33.450;2022-12-29T00:34:25;7.72;;;2.08;;
76854;SDS011;66343;44.588;33.450;2022-12-29T00:37:37;7.68;;;2.17;;
76854;SDS011;66343;44.588;33.450;2022-12-29T00:40:48;7.97;;;2.47;;
76854;SDS011;66343;44.588;33.450;2022-12-29T00:43:57;7.25;;;2.80;;
76854;SDS011;66343;44.588;33.450;2022-12-29T00:49:54;7.00;;;2.85;;
76854;SDS011;66343;44.588;33.450;2022-12-29T00:52:22;7.38;;;2.30;;
76854;SDS011;66343;44.588;33.450;2022-12-29T00:54:53;7.00;;;2.42;;
76854;SDS011;66343;44.588;33.450;2022-12-29T00:57:37;7.38;;;2.17;;
76854;SDS011;66343;44.588;33.450;2022-12-29T01:00:25;8.52;;;2.47;;
76854;SDS011;66343;44.588;33.450;2022-12-29T01:03:15;7.82;;;1.67;;
76854;SDS011;66343;44.588;33.450;2022-12-29T01:05:43;6.75;;;1.92;;
76854;SDS011;66343;44.588;33.450;2022-12-29T01:08:15;5.78;;;1.63;;
76854;SDS011;66343;44.588;33.450;2022-12-29T01:11:11;8.57;;;2.22;;
76854;SDS011;66343;44.588;33.450;2022-12-29T01:13:43;3.85;;;1.30;;
76854;SDS011;66343;44.588;33.450;2022-12-29T01:16:26;6.10;;;1.92;;
76854;SDS011;66343;44.588;33.450;2022-12-29T01:19:09;6.10;;;1.80;;
76854;SDS011;66343;44.588;33.450;2022-12-29T01:21:40;5.80;;;1.63;;
76854;SDS011;66343;44.588;33.450;2022-12-29T01:24:32;4.28;;;1.35;;
76854;SDS011;66343;44.588;33.450;2022-12-29T01:27:00;8.13;;;1.77;;
76854;SDS011;66343;44.588;33.450;2022-12-29T01:29:28;8.57;;;2.22;;
76854;SDS011;66343;44.588;33.450;2022-12-29T01:31:56;5.47;;;2.03;;
76854;SDS011;66343;44.588;33.450;2022-12-29T01:34:28;4.63;;;1.70;;
76854;SDS011;66343;44.588;33.450;2022-12-29T01:36:56;5.20;;;1.75;;
76854;SDS011;66343;44.588;33.450;2022-12-29T01:39:24;6.70;;;1.90;;
76854;SDS011;66343;44.588;33.450;2022-12-29T01:41:54;6.20;;;1.80;;
76854;SDS011;66343;44.588;33.450;2022-12-29T01:44:55;6.32;;;1.77;;
76854;SDS011;66343;44.588;33.450;2022-12-29T01:47:53;5.55;;;1.70;;
76854;SDS011;66343;44.588;33.450;2022-12-29T01:50:52;7.03;;;2.40;;
76854;SDS011;66343;44.588;33.450;2022-12-29T01:53:27;4.75;;;1.55;;
76854;SDS011;66343;44.588;33.450;2022-12-29T01:56:00;6.22;;;1.85;;
76854;SDS011;66343;44.588;33.450;2022-12-29T01:58:35;6.20;;;1.70;;
76854;SDS011;66343;44.588;33.450;2022-12-29T02:01:13;6.38;;;1.90;;
76854;SDS011;66343;44.588;33.450;2022-12-29T02:04:00;5.65;;;1.55;;
76854;SDS011;66343;44.588;33.450;2022-12-29T02:06:51;5.82;;;1.65;;
76854;SDS011;66343;44.588;33.450;2022-12-29T02:09:46;4.68;;;1.30;;
76854;SDS011;66343;44.588;33.450;2022-12-29T02:12:31;5.18;;;1.40;;
76854;SDS011;66343;44.588;33.450;2022-12-29T02:14:59;5.78;;;1.50;;
76854;SDS011;66343;44.588;33.450;2022-12-29T02:24:16;5.78;;;1.40;;
76854;SDS011;66343;44.588;33.450;2022-12-29T02:35:10;7.25;;;1.73;;
76854;SDS011;66343;44.588;33.450;2022-12-29T02:41:37;7.75;;;1.58;;
76854;SDS011;66343;44.588;33.450;2022-12-29T02:50:26;11.15;;;3.67;;
76854;SDS011;66343;44.588;33.450;2022-12-29T02:53:07;13.52;;;4.15;;
76854;SDS011;66343;44.588;33.450;2022-12-29T02:55:56;12.82;;;4.20;;
76854;SDS011;66343;44.588;33.450;2022-12-29T02:58:24;11.95;;;3.67;;
76854;SDS011;66343;44.588;33.450;2022-12-29T03:01:04;9.80;;;2.90;;
76854;SDS011;66343;44.588;33.450;2022-12-29T03:06:22;8.50;;;2.38;;
76854;SDS011;66343;44.588;33.450;2022-12-29T03:15:53;7.60;;;2.15;;
76854;SDS011;66343;44.588;33.450;2022-12-29T03:18:58;6.43;;;1.85;;
76854;SDS011;66343;44.588;33.450;2022-12-29T03:21:49;7.75;;;2.53;;
76854;SDS011;66343;44.588;33.450;2022-12-29T03:25:18;6.53;;;2.03;;
76854;SDS011;66343;44.588;33.450;2022-12-29T03:28:16;7.38;;;1.90;;
76854;SDS011;66343;44.588;33.450;2022-12-29T03:31:16;7.32;;;2.00;;
76854;SDS011;66343;44.588;33.450;2022-12-29T03:34:08;7.32;;;1.98;;
76854;SDS011;66343;44.588;33.450;2022-12-29T03:37:02;5.45;;;1.92;;
76854;SDS011;66343;44.588;33.450;2022-12-29T03:40:00;4.28;;;1.48;;
76854;SDS011;66343;44.588;33.450;2022-12-29T03:42:44;5.72;;;2.17;;
76854;SDS011;66343;44.588;33.450;2022-12-29T03:45:33;10.27;;;2.22;;
76854;SDS011;66343;44.588;33.450;2022-12-29T03:48:15;9.27;;;2.08;;
76854;SDS011;66343;44.588;33.450;2022-12-29T03:50:58;7.75;;;2.38;;
76854;SDS011;66343;44.588;33.450;2022-12-29T03:53:41;7.50;;;2.22;;
76854;SDS011;66343;44.588;33.450;2022-12-29T03:56:28;7.20;;;1.95;;
76854;SDS011;66343;44.588;33.450;2022-12-29T03:59:14;9.48;;;2.20;;
76854;SDS011;66343;44.588;33.450;2022-12-29T04:02:06;7.55;;;1.60;;
76854;SDS011;66343;44.588;33.450;2022-12-29T04:04:50;6.55;;;2.10;;
76854;SDS011;66343;44.588;33.450;2022-12-29T04:07:43;7.13;;;2.00;;
76854;SDS011;66343;44.588;33.450;2022-12-29T04:10:29;6.50;;;1.60;;
76854;SDS011;66343;44.588;33.450;2022-12-29T04:13:24;8.55;;;2.10;;
76854;SDS011;66343;44.588;33.450;2022-12-29T04:16:13;5.53;;;1.58;;
76854;SDS011;66343;44.588;33.450;2022-12-29T04:19:00;7.75;;;1.95;;
76854;SDS011;66343;44.588;33.450;2022-12-29T04:21:47;7.05;;;1.92;;
76854;SDS011;66343;44.588;33.450;2022-12-29T04:24:41;5.63;;;1.77;;
76854;SDS011;66343;44.588;33.450;2022-12-29T04:27:24;10.18;;;3.25;;
76854;SDS011;66343;44.588;33.450;2022-12-29T04:30:30;6.38;;;2.00;;
76854;SDS011;66343;44.588;33.450;2022-12-29T04:33:24;7.75;;;2.20;;
76854;SDS011;66343;44.588;33.450;2022-12-29T04:36:14;10.75;;;2.08;;
76854;SDS011;66343;44.588;33.450;2022-12-29T04:39:09;6.82;;;2.08;;
76854;SDS011;66343;44.588;33.450;2022-12-29T04:41:46;8.57;;;3.08;;
76854;SDS011;66343;44.588;33.450;2022-12-29T04:44:20;8.82;;;2.65;;
76854;SDS011;66343;44.588;33.450;2022-12-29T04:47:08;9.82;;;2.65;;
76854;SDS011;66343;44.588;33.450;2022-12-29T04:50:04;8.73;;;1.85;;
76854;SDS011;66343;44.588;33.450;2022-12-29T04:52:42;8.48;;;2.25;;
76854;SDS011;66343;44.588;33.450;2022-12-29T04:55:13;11.30;;;2.15;;
76854;SDS011;66343;44.588;33.450;2022-12-29T04:57:41;9.45;;;2.10;;
76854;SDS011;66343;44.588;33.450;2022-12-29T05:00:40;7.63;;;2.30;;
76854;SDS011;66343;44.588;33.450;2022-12-29T05:03:32;8.82;;;2.78;;
76854;SDS011;66343;44.588;33.450;2022-12-29T05:06:27;10.52;;;2.60;;
76854;SDS011;66343;44.588;33.450;2022-12-29T05:09:15;10.20;;;2.40;;
76854;SDS011;66343;44.588;33.450;2022-12-29T05:12:01;9.10;;;2.20;;
76854;SDS011;66343;44.588;33.450;2022-12-29T05:14:58;9.07;;;2.85;;
76854;SDS011;66343;44.588;33.450;2022-12-29T05:17:54;9.88;;;2.83;;
76854;SDS011;66343;44.588;33.450;2022-12-29T05:20:52;11.75;;;2.78;;
76854;SDS011;66343;44.588;33.450;2022-12-29T05:23:55;9.13;;;3.22;;
76854;SDS011;66343;44.588;33.450;2022-12-29T05:26:58;10.45;;;2.90;;
76854;SDS011;66343;44.588;33.450;2022-12-29T05:29:58;7.28;;;2.42;;
76854;SDS011;66343;44.588;33.450;2022-12-29T05:32:26;15.07;;;3.97;;
76854;SDS011;66343;44.588;33.450;2022-12-29T05:34:57;12.63;;;2.95;;
76854;SDS011;66343;44.588;33.450;2022-12-29T05:37:31;12.18;;;2.47;;
76854;SDS011;66343;44.588;33.450;2022-12-29T05:40:24;9.27;;;2.17;;
76854;SDS011;66343;44.588;33.450;2022-12-29T05:43:02;14.52;;;2.67;;
76854;SDS011;66343;44.588;33.450;2022-12-29T05:46:08;10.80;;;3.22;;
76854;SDS011;66343;44.588;33.450;2022-12-29T05:52:00;10.98;;;2.40;;
76854;SDS011;66343;44.588;33.450;2022-12-29T05:54:53;15.85;;;3.67;;
76854;SDS011;66343;44.588;33.450;2022-12-29T05:57:39;14.55;;;6.10;;
76854;SDS011;66343;44.588;33.450;2022-12-29T06:03:41;12.05;;;3.25;;
76854;SDS011;66343;44.588;33.450;2022-12-29T06:06:38;8.73;;;2.22;;
76854;SDS011;66343;44.588;33.450;2022-12-29T06:09:26;12.90;;;2.88;;
76854;SDS011;66343;44.588;33.450;2022-12-29T06:12:13;12.00;;;3.20;;
76854;SDS011;66343;44.588;33.450;2022-12-29T06:15:06;12.65;;;2.95;;
76854;SDS011;66343;44.588;33.450;2022-12-29T06:17:53;17.13;;;3.25;;
76854;SDS011;66343;44.588;33.450;2022-12-29T06:20:41;20.77;;;4.88;;
76854;SDS011;66343;44.588;33.450;2022-12-29T06:26:13;15.60;;;3.70;;
76854;SDS011;66343;44.588;33.450;2022-12-29T06:28:56;17.00;;;5.93;;
76854;SDS011;66343;44.588;33.450;2022-12-29T06:31:40;15.00;;;3.45;;
76854;SDS011;66343;44.588;33.450;2022-12-29T06:34:52;14.73;;;3.05;;
76854;SDS011;66343;44.588;33.450;2022-12-29T06:37:47;14.38;;;2.92;;
76854;SDS011;66343;44.588;33.450;2022-12-29T06:40:46;15.02;;;3.78;;
76854;SDS011;66343;44.588;33.450;2022-12-29T06:43:42;14.30;;;3.22;;
76854;SDS011;66343;44.588;33.450;2022-12-29T06:46:56;11.27;;;3.67;;
76854;SDS011;66343;44.588;33.450;2022-12-29T06:49:55;13.10;;;3.78;;
76854;SDS011;66343;44.588;33.450;2022-12-29T06:52:51;13.25;;;4.20;;
76854;SDS011;66343;44.588;33.450;2022-12-29T06:56:04;12.93;;;3.50;;
76854;SDS011;66343;44.588;33.450;2022-12-29T06:58:58;20.17;;;4.35;;
76854;SDS011;66343;44.588;33.450;2022-12-29T07:02:00;13.13;;;3.53;;
76854;SDS011;66343;44.588;33.450;2022-12-29T07:04:35;15.60;;;3.08;;
76854;SDS011;66343;44.588;33.450;2022-12-29T07:07:35;13.30;;;3.00;;
76854;SDS011;66343;44.588;33.450;2022-12-29T07:10:30;13.80;;;3.30;;
76854;SDS011;66343;44.588;33.450;2022-12-29T07:13:29;15.05;;;3.40;;
76854;SDS011;66343;44.588;33.450;2022-12-29T07:16:20;15.27;;;4.72;;
76854;SDS011;66343;44.588;33.450;2022-12-29T07:19:19;15.27;;;5.43;;
76854;SDS011;66343;44.588;33.450;2022-12-29T07:22:18;13.98;;;4.63;;
76854;SDS011;66343;44.588;33.450;2022-12-29T07:25:17;14.45;;;4.25;;
76854;SDS011;66343;44.588;33.450;2022-12-29T07:28:02;15.77;;;4.35;;
76854;SDS011;66343;44.588;33.450;2022-12-29T07:30:51;18.60;;;6.00;;
76854;SDS011;66343;44.588;33.450;2022-12-29T07:33:34;15.18;;;5.03;;
76854;SDS011;66343;44.588;33.450;2022-12-29T07:36:25;12.35;;;4.22;;
76854;SDS011;66343;44.588;33.450;2022-12-29T07:38:54;12.40;;;4.13;;
76854;SDS011;66343;44.588;33.450;2022-12-29T07:41:44;11.90;;;4.18;;
76854;SDS011;66343;44.588;33.450;2022-12-29T07:44:36;14.40;;;3.78;;
76854;SDS011;66343;44.588;33.450;2022-12-29T07:47:29;12.60;;;3.63;;
76854;SDS011;66343;44.588;33.450;2022-12-29T07:50:22;14.88;;;3.80;;
76854;SDS011;66343;44.588;33.450;2022-12-29T07:53:08;5.57;;;1.85;;
76854;SDS011;66343;44.588;33.450;2022-12-29T07:55:59;12.35;;;3.40;;
76854;SDS011;66343;44.588;33.450;2022-12-29T07:58:48;7.03;;;1.77;;
76854;SDS011;66343;44.588;33.450;2022-12-29T08:01:33;9.10;;;1.63;;
76854;SDS011;66343;44.588;33.450;2022-12-29T08:04:18;5.90;;;1.50;;
76854;SDS011;66343;44.588;33.450;2022-12-29T08:07:22;5.55;;;1.42;;
76854;SDS011;66343;44.588;33.450;2022-12-29T08:10:16;6.70;;;1.90;;
76854;SDS011;66343;44.588;33.450;2022-12-29T08:13:13;7.88;;;2.17;;
76854;SDS011;66343;44.588;33.450;2022-12-29T08:16:09;6.07;;;1.80;;
76854;SDS011;66343;44.588;33.450;2022-12-29T08:18:39;6.32;;;1.50;;
76854;SDS011;66343;44.588;33.450;2022-12-29T08:21:18;5.40;;;1.48;;
76854;SDS011;66343;44.588;33.450;2022-12-29T08:23:52;5.22;;;1.27;;
76854;SDS011;66343;44.588;33.450;2022-12-29T08:26:23;4.57;;;1.30;;
76854;SDS011;66343;44.588;33.450;2022-12-29T08:28:54;6.90;;;1.35;;
76854;SDS011;66343;44.588;33.450;2022-12-29T08:32:01;8.60;;;1.67;;
76854;SDS011;66343;44.588;33.450;2022-12-29T08:35:05;4.38;;;0.98;;
76854;SDS011;66343;44.588;33.450;2022-12-29T08:38:09;6.72;;;0.95;;
76854;SDS011;66343;44.588;33.450;2022-12-29T08:41:19;4.88;;;1.17;;
76854;SDS011;66343;44.588;33.450;2022-12-29T08:44:21;6.53;;;1.15;;
76854;SDS011;66343;44.588;33.450;2022-12-29T08:47:05;7.28;;;1.40;;
76854;SDS011;66343;44.588;33.450;2022-12-29T08:49:53;4.93;;;1.25;;
76854;SDS011;66343;44.588;33.450;2022-12-29T08:52:43;6.30;;;1.50;;
76854;SDS011;66343;44.588;33.450;2022-12-29T08:55:31;5.20;;;1.38;;
76854;SDS011;66343;44.588;33.450;2022-12-29T08:58:37;6.45;;;1.40;;
76854;SDS011;66343;44.588;33.450;2022-12-29T09:01:30;6.30;;;1.42;;
76854;SDS011;66343;44.588;33.450;2022-12-29T09:04:31;5.55;;;1.20;;
76854;SDS011;66343;44.588;33.450;2022-12-29T09:07:29;4.05;;;1.30;;
76854;SDS011;66343;44.588;33.450;2022-12-29T09:10:19;5.97;;;1.30;;
76854;SDS011;66343;44.588;33.450;2022-12-29T09:12:49;6.63;;;1.52;;
76854;SDS011;66343;44.588;33.450;2022-12-29T09:15:28;3.95;;;1.10;;
76854;SDS011;66343;44.588;33.450;2022-12-29T09:18:17;6.10;;;1.60;;
76854;SDS011;66343;44.588;33.450;2022-12-29T09:21:00;5.72;;;1.73;;
76854;SDS011;66343;44.588;33.450;2022-12-29T09:23:53;4.68;;;1.17;;
76854;SDS011;66343;44.588;33.450;2022-12-29T09:26:46;7.47;;;1.60;;
76854;SDS011;66343;44.588;33.450;2022-12-29T09:29:45;9.38;;;1.90;;
76854;SDS011;66343;44.588;33.450;2022-12-29T09:32:40;4.78;;;1.27;;
76854;SDS011;66343;44.588;33.450;2022-12-29T09:35:34;6.32;;;1.40;;
76854;SDS011;66343;44.588;33.450;2022-12-29T09:38:04;6.15;;;1.33;;
76854;SDS011;66343;44.588;33.450;2022-12-29T09:40:34;5.80;;;1.27;;
76854;SDS011;66343;44.588;33.450;2022-12-29T09:46:32;8.30;;;1.73;;
76854;SDS011;66343;44.588;33.450;2022-12-29T09:51:57;8.30;;;1.40;;
76854;SDS011;66343;44.588;33.450;2022-12-29T09:57:59;5.68;;;1.50;;
76854;SDS011;66343;44.588;33.450;2022-12-29T10:03:48;9.38;;;1.40;;
76854;SDS011;66343;44.588;33.450;2022-12-29T10:09:24;4.47;;;1.20;;
76854;SDS011;66343;44.588;33.450;2022-12-29T10:24:37;7.90;;;1.88;;
76854;SDS011;66343;44.588;33.450;2022-12-29T10:27:46;4.38;;;1.20;;
76854;SDS011;66343;44.588;33.450;2022-12-29T10:30:39;6.65;;;1.52;;
76854;SDS011;66343;44.588;33.450;2022-12-29T10:33:22;5.78;;;1.50;;
76854;SDS011;66343;44.588;33.450;2022-12-29T10:39:30;6.60;;;1.48;;
76854;SDS011;66343;44.588;33.450;2022-12-29T10:42:32;4.72;;;1.20;;
76854;SDS011;66343;44.588;33.450;2022-12-29T10:45:28;6.35;;;1.70;;
76854;SDS011;66343;44.588;33.450;2022-12-29T10:48:17;9.52;;;1.65;;
76854;SDS011;66343;44.588;33.450;2022-12-29T10:51:14;7.78;;;1.25;;
76854;SDS011;66343;44.588;33.450;2022-12-29T10:54:23;6.15;;;1.50;;
76854;SDS011;66343;44.588;33.450;2022-12-29T10:57:46;5.32;;;1.60;;
76854;SDS011;66343;44.588;33.450;2022-12-29T11:00:38;7.32;;;1.65;;
76854;SDS011;66343;44.588;33.450;2022-12-29T11:03:38;5.15;;;1.20;;
76854;SDS011;66343;44.588;33.450;2022-12-29T11:06:25;5.20;;;1.42;;
76854;SDS011;66343;44.588;33.450;2022-12-29T11:09:12;8.30;;;1.55;;
76854;SDS011;66343;44.588;33.450;2022-12-29T11:11:54;5.47;;;1.30;;
76854;SDS011;66343;44.588;33.450;2022-12-29T11:14:28;5.05;;;1.10;;
76854;SDS011;66343;44.588;33.450;2022-12-29T11:16:59;7.60;;;1.42;;
76854;SDS011;66343;44.588;33.450;2022-12-29T11:19:32;5.95;;;1.55;;
76854;SDS011;66343;44.588;33.450;2022-12-29T11:22:30;5.68;;;1.17;;
76854;SDS011;66343;44.588;33.450;2022-12-29T11:25:34;5.35;;;1.23;;
76854;SDS011;66343;44.588;33.450;2022-12-29T11:28:29;6.38;;;1.27;;
76854;SDS011;66343;44.588;33.450;2022-12-29T11:31:40;6.57;;;1.20;;
76854;SDS011;66343;44.588;33.450;2022-12-29T11:34:37;6.18;;;1.20;;
76854;SDS011;66343;44.588;33.450;2022-12-29T11:37:36;8.18;;;1.60;;
76854;SDS011;66343;44.588;33.450;2022-12-29T11:40:37;6.47;;;1.40;;
76854;SDS011;66343;44.588;33.450;2022-12-29T11:43:35;8.20;;;1.40;;
76854;SDS011;66343;44.588;33.450;2022-12-29T11:46:36;7.85;;;1.63;;
76854;SDS011;66343;44.588;33.450;2022-12-29T11:49:24;5.78;;;1.40;;
76854;SDS011;66343;44.588;33.450;2022-12-29T11:52:11;5.13;;;1.40;;
76854;SDS011;66343;44.588;33.450;2022-12-29T11:54:58;5.65;;;1.23;;
76854;SDS011;66343;44.588;33.450;2022-12-29T11:57:44;6.55;;;2.03;;
76854;SDS011;66343;44.588;33.450;2022-12-29T12:00:38;5.32;;;1.23;;
76854;SDS011;66343;44.588;33.450;2022-12-29T12:03:19;6.53;;;1.45;;
76854;SDS011;66343;44.588;33.450;2022-12-29T12:08:51;5.65;;;1.33;;
76854;SDS011;66343;44.588;33.450;2022-12-29T12:11:32;9.77;;;2.05;;
76854;SDS011;66343;44.588;33.450;2022-12-29T12:14:31;5.75;;;1.33;;
76854;SDS011;66343;44.588;33.450;2022-12-29T12:20:50;6.53;;;1.50;;
76854;SDS011;66343;44.588;33.450;2022-12-29T12:23:29;6.00;;;1.52;;
76854;SDS011;66343;44.588;33.450;2022-12-29T12:26:27;5.78;;;1.33;;
76854;SDS011;66343;44.588;33.450;2022-12-29T12:32:39;5.43;;;1.58;;
76854;SDS011;66343;44.588;33.450;2022-12-29T12:35:51;5.50;;;1.50;;
76854;SDS011;66343;44.588;33.450;2022-12-29T12:41:51;8.20;;;1.60;;
76854;SDS011;66343;44.588;33.450;2022-12-29T12:48:19;9.02;;;2.30;;
76854;SDS011;66343;44.588;33.450;2022-12-29T12:54:37;6.03;;;1.83;;
76854;SDS011;66343;44.588;33.450;2022-12-29T12:57:58;8.45;;;2.10;;
76854;SDS011;66343;44.588;33.450;2022-12-29T13:04:08;8.25;;;1.95;;
76854;SDS011;66343;44.588;33.450;2022-12-29T13:13:32;7.10;;;2.00;;
76854;SDS011;66343;44.588;33.450;2022-12-29T13:16:40;7.05;;;1.52;;
76854;SDS011;66343;44.588;33.450;2022-12-29T13:23:02;12.57;;;3.35;;
76854;SDS011;66343;44.588;33.450;2022-12-29T13:29:25;9.27;;;2.55;;
76854;SDS011;66343;44.588;33.450;2022-12-29T13:38:38;12.60;;;2.30;;
76854;SDS011;66343;44.588;33.450;2022-12-29T13:41:39;8.40;;;2.10;;
76854;SDS011;66343;44.588;33.450;2022-12-29T13:44:36;9.73;;;3.00;;
76854;SDS011;66343;44.588;33.450;2022-12-29T13:47:39;15.20;;;3.92;;
76854;SDS011;66343;44.588;33.450;2022-12-29T13:51:02;14.38;;;6.68;;
76854;SDS011;66343;44.588;33.450;2022-12-29T14:00:25;12.65;;;3.40;;
76854;SDS011;66343;44.588;33.450;2022-12-29T14:03:42;10.23;;;3.22;;
76854;SDS011;66343;44.588;33.450;2022-12-29T14:06:26;8.88;;;2.38;;
76854;SDS011;66343;44.588;33.450;2022-12-29T14:08:58;11.45;;;3.22;;
76854;SDS011;66343;44.588;33.450;2022-12-29T14:11:38;9.38;;;2.90;;
76854;SDS011;66343;44.588;33.450;2022-12-29T14:14:34;14.40;;;2.58;;
76854;SDS011;66343;44.588;33.450;2022-12-29T14:17:10;9.57;;;3.25;;
76854;SDS011;66343;44.588;33.450;2022-12-29T14:19:54;9.88;;;2.53;;
76854;SDS011;66343;44.588;33.450;2022-12-29T14:23:02;10.02;;;2.90;;
76854;SDS011;66343;44.588;33.450;2022-12-29T14:32:36;15.55;;;4.53;;
76854;SDS011;66343;44.588;33.450;2022-12-29T14:35:39;11.52;;;3.85;;
76854;SDS011;66343;44.588;33.450;2022-12-29T14:38:28;11.52;;;3.35;;
76854;SDS011;66343;44.588;33.450;2022-12-29T14:41:22;15.02;;;2.85;;
76854;SDS011;66343;44.588;33.450;2022-12-29T14:44:20;14.00;;;3.22;;
76854;SDS011;66343;44.588;33.450;2022-12-29T14:47:15;10.77;;;3.20;;
76854;SDS011;66343;44.588;33.450;2022-12-29T14:53:01;12.77;;;3.15;;
76854;SDS011;66343;44.588;33.450;2022-12-29T14:55:55;11.15;;;4.18;;
76854;SDS011;66343;44.588;33.450;2022-12-29T14:59:04;11.57;;;2.88;;
76854;SDS011;66343;44.588;33.450;2022-12-29T15:01:57;11.15;;;3.85;;
76854;SDS011;66343;44.588;33.450;2022-12-29T15:04:46;16.20;;;3.70;;
76854;SDS011;66343;44.588;33.450;2022-12-29T15:07:30;14.05;;;4.32;;
76854;SDS011;66343;44.588;33.450;2022-12-29T15:10:07;15.15;;;3.72;;
76854;SDS011;66343;44.588;33.450;2022-12-29T15:12:43;12.20;;;3.72;;
76854;SDS011;66343;44.588;33.450;2022-12-29T15:15:25;12.20;;;4.15;;
76854;SDS011;66343;44.588;33.450;2022-12-29T15:18:27;13.55;;;3.90;;
76854;SDS011;66343;44.588;33.450;2022-12-29T15:21:29;8.73;;;2.58;;
76854;SDS011;66343;44.588;33.450;2022-12-29T15:24:17;11.88;;;2.70;;
76854;SDS011;66343;44.588;33.450;2022-12-29T15:27:14;12.80;;;2.70;;
76854;SDS011;66343;44.588;33.450;2022-12-29T15:29:50;15.52;;;3.90;;
76854;SDS011;66343;44.588;33.450;2022-12-29T15:34:59;10.40;;;3.05;;
76854;SDS011;66343;44.588;33.450;2022-12-29T15:37:49;15.10;;;3.60;;
76854;SDS011;66343;44.588;33.450;2022-12-29T15:40:37;10.15;;;3.13;;
76854;SDS011;66343;44.588;33.450;2022-12-29T15:45:57;6.70;;;2.17;;
76854;SDS011;66343;44.588;33.450;2022-12-29T15:48:55;10.05;;;2.55;;
76854;SDS011;66343;44.588;33.450;2022-12-29T15:51:55;12.68;;;2.90;;
76854;SDS011;66343;44.588;33.450;2022-12-29T15:54:51;11.43;;;3.28;;
76854;SDS011;66343;44.588;33.450;2022-12-29T15:57:42;12.02;;;3.65;;
76854;SDS011;66343;44.588;33.450;2022-12-29T16:00:36;13.23;;;3.95;;
76854;SDS011;66343;44.588;33.450;2022-12-29T16:03:22;14.00;;;4.07;;
76854;SDS011;66343;44.588;33.450;2022-12-29T16:05:58;14.73;;;4.13;;
76854;SDS011;66343;44.588;33.450;2022-12-29T16:08:37;14.35;;;3.50;;
76854;SDS011;66343;44.588;33.450;2022-12-29T16:11:20;19.17;;;4.18;;
76854;SDS011;66343;44.588;33.450;2022-12-29T16:14:14;13.50;;;3.00;;
76854;SDS011;66343;44.588;33.450;2022-12-29T16:16:52;12.30;;;3.33;;
76854;SDS011;66343;44.588;33.450;2022-12-29T16:19:34;12.93;;;3.53;;
76854;SDS011;66343;44.588;33.450;2022-12-29T16:22:27;10.90;;;2.78;;
76854;SDS011;66343;44.588;33.450;2022-12-29T16:24:55;10.40;;;2.45;;
76854;SDS011;66343;44.588;33.450;2022-12-29T16:27:54;10.07;;;2.55;;
76854;SDS011;66343;44.588;33.450;2022-12-29T16:30:44;9.32;;;2.60;;
76854;SDS011;66343;44.588;33.450;2022-12-29T16:33:47;14.85;;;3.30;;
76854;SDS011;66343;44.588;33.450;2022-12-29T16:36:34;15.10;;;4.07;;
76854;SDS011;66343;44.588;33.450;2022-12-29T16:39:18;12.15;;;2.78;;
76854;SDS011;66343;44.588;33.450;2022-12-29T16:41:58;10.48;;;3.25;;
76854;SDS011;66343;44.588;33.450;2022-12-29T16:44:42;8.75;;;2.70;;
76854;SDS011;66343;44.588;33.450;2022-12-29T16:47:18;18.00;;;5.40;;
76854;SDS011;66343;44.588;33.450;2022-12-29T16:49:50;10.52;;;3.05;;
76854;SDS011;66343;44.588;33.450;2022-12-29T16:52:31;11.73;;;2.50;;
76854;SDS011;66343;44.588;33.450;2022-12-29T16:55:54;9.85;;;2.40;;
76854;SDS011;66343;44.588;33.450;2022-12-29T17:02:45;6.47;;;1.55;;
76854;SDS011;66343;44.588;33.450;2022-12-29T17:06:10;9.30;;;1.98;;
76854;SDS011;66343;44.588;33.450;2022-12-29T17:09:00;7.95;;;2.20;;
76854;SDS011;66343;44.588;33.450;2022-12-29T17:11:31;12.02;;;3.10;;
76854;SDS011;66343;44.588;33.450;2022-12-29T17:14:53;11.35;;;2.67;;
76854;SDS011;66343;44.588;33.450;2022-12-29T17:17:45;10.30;;;2.78;;
76854;SDS011;66343;44.588;33.450;2022-12-29T17:20:41;11.63;;;2.03;;
76854;SDS011;66343;44.588;33.450;2022-12-29T17:23:29;11.38;;;2.03;;
76854;SDS011;66343;44.588;33.450;2022-12-29T17:26:15;6.47;;;1.90;;
76854;SDS011;66343;44.588;33.450;2022-12-29T17:29:06;14.23;;;3.22;;
76854;SDS011;66343;44.588;33.450;2022-12-29T17:31:58;15.13;;;2.75;;
76854;SDS011;66343;44.588;33.450;2022-12-29T17:34:47;8.88;;;2.08;;
76854;SDS011;66343;44.588;33.450;2022-12-29T17:37:35;8.88;;;2.10;;
76854;SDS011;66343;44.588;33.450;2022-12-29T17:40:31;9.30;;;2.13;;
76854;SDS011;66343;44.588;33.450;2022-12-29T17:43:43;9.15;;;2.47;;
76854;SDS011;66343;44.588;33.450;2022-12-29T17:46:32;9.63;;;2.38;;
76854;SDS011;66343;44.588;33.450;2022-12-29T17:49:18;7.70;;;2.35;;
76854;SDS011;66343;44.588;33.450;2022-12-29T17:52:04;11.20;;;3.40;;
76854;SDS011;66343;44.588;33.450;2022-12-29T17:54:49;9.55;;;2.63;;
76854;SDS011;66343;44.588;33.450;2022-12-29T17:57:42;12.35;;;2.92;;
76854;SDS011;66343;44.588;33.450;2022-12-29T18:00:14;5.80;;;1.85;;
76854;SDS011;66343;44.588;33.450;2022-12-29T18:02:53;7.55;;;1.85;;
76854;SDS011;66343;44.588;33.450;2022-12-29T18:05:25;5.75;;;1.60;;
76854;SDS011;66343;44.588;33.450;2022-12-29T18:08:10;8.82;;;2.47;;
76854;SDS011;66343;44.588;33.450;2022-12-29T18:10:41;6.28;;;1.80;;
76854;SDS011;66343;44.588;33.450;2022-12-29T18:13:14;9.23;;;1.80;;
76854;SDS011;66343;44.588;33.450;2022-12-29T18:16:15;6.38;;;1.92;;
76854;SDS011;66343;44.588;33.450;2022-12-29T18:19:08;9.57;;;2.47;;
76854;SDS011;66343;44.588;33.450;2022-12-29T18:21:37;10.52;;;2.20;;
76854;SDS011;66343;44.588;33.450;2022-12-29T18:24:15;12.65;;;2.53;;
76854;SDS011;66343;44.588;33.450;2022-12-29T18:29:15;8.13;;;1.83;;
76854;SDS011;66343;44.588;33.450;2022-12-29T18:32:03;11.05;;;2.50;;
76854;SDS011;66343;44.588;33.450;2022-12-29T18:35:36;8.70;;;2.13;;
76854;SDS011;66343;44.588;33.450;2022-12-29T18:41:27;7.40;;;2.05;;
76854;SDS011;66343;44.588;33.450;2022-12-29T18:44:15;8.25;;;2.10;;
76854;SDS011;66343;44.588;33.450;2022-12-29T18:47:00;7.15;;;1.90;;
76854;SDS011;66343;44.588;33.450;2022-12-29T18:49:48;7.35;;;1.75;;
76854;SDS011;66343;44.588;33.450;2022-12-29T18:52:37;7.38;;;1.70;;
76854;SDS011;66343;44.588;33.450;2022-12-29T18:55:31;8.25;;;1.60;;
76854;SDS011;66343;44.588;33.450;2022-12-29T18:58:22;7.50;;;1.60;;
76854;SDS011;66343;44.588;33.450;2022-12-29T19:01:28;5.35;;;1.45;;
76854;SDS011;66343;44.588;33.450;2022-12-29T19:04:04;6.38;;;1.75;;
76854;SDS011;66343;44.588;33.450;2022-12-29T19:06:53;6.43;;;1.80;;
76854;SDS011;66343;44.588;33.450;2022-12-29T19:09:55;6.93;;;1.65;;
76854;SDS011;66343;44.588;33.450;2022-12-29T19:12:49;10.10;;;1.67;;
76854;SDS011;66343;44.588;33.450;2022-12-29T19:15:38;6.32;;;1.67;;